Terminal Aerodrome Forecast
Issued by NWS

Home | Current Version | Previous Version | Text Only | Print | Product List | Glossary On
Versions: 1 2 3 4 5 6 7 8 9 10 11 12 13 14 15 16 17 18 19
489
FTUS41 KPHI 202333
TAFMIV
TAF
KMIV 202333Z 2100/2124 VRB03KT P6SM SCT100
      TEMPO 2108/2112 4SM BR SCT010
     FM211300 31006KT P6SM SCT100
     FM211600 27008KT P6SM SCT050=

USA.gov is the U.S. government's official web portal to all federal, state and local government web resources and services.